Time;durP1;ratioP1;P1;durP2;ratioP2;P2;SDS_P1;SDS_P2;PMS_P1;PMS_P2;Temp;Humidity;BMP_temperature;BMP_pressure;BME280_temperature;BME280_humidity;BME280_pressure;Samples;Min_cycle;Max_cycle;Signal;HPM_P1;HPM_P2
2022/02/24 00:00:24;;;;;;;13.77;4.10;;;9.00;99.90;;;;;;5126716;28;20231;-78
2022/02/24 00:02:55;;;;;;;11.30;3.37;;;9.00;99.90;;;;;;5126793;28;20663;-78
2022/02/24 00:05:21;;;;;;;9.57;3.20;;;9.00;99.90;;;;;;5128726;28;20566;-78
2022/02/24 00:07:48;;;;;;;13.87;3.30;;;9.10;99.90;;;;;;5125845;28;20204;-79
2022/02/24 00:10:22;;;;;;;12.33;3.67;;;9.00;99.90;;;;;;5125228;28;20204;-78
2022/02/24 00:12:54;;;;;;;13.50;4.28;;;8.90;99.90;;;;;;5124718;28;20569;-78
2022/02/24 00:15:20;;;;;;;11.73;3.90;;;9.00;99.90;;;;;;5124110;28;20275;-78
2022/02/24 00:17:49;;;;;;;13.73;3.90;;;9.00;99.90;;;;;;5124373;28;20172;-78
2022/02/24 00:20:15;;;;;;;12.90;3.50;;;9.00;99.90;;;;;;5126237;28;20224;-78
2022/02/24 00:22:43;;;;;;;12.80;3.37;;;8.90;99.90;;;;;;5125415;28;20197;-78
2022/02/24 00:25:17;;;;;;;11.70;3.27;;;8.90;99.90;;;;;;5125816;28;20211;-78
2022/02/24 00:27:45;;;;;;;11.83;3.17;;;8.80;99.90;;;;;;5125003;28;20196;-78
2022/02/24 00:30:12;;;;;;;9.50;2.90;;;8.90;99.90;;;;;;5130553;28;20534;-78
2022/02/24 00:32:40;;;;;;;13.73;3.23;;;8.80;99.90;;;;;;5124213;28;20207;-78
2022/02/24 00:35:18;;;;;;;16.47;4.37;;;8.80;99.90;;;;;;5126366;28;20241;-79
2022/02/24 00:37:44;;;;;;;10.93;3.73;;;8.90;99.90;;;;;;5125376;28;20181;-78
2022/02/24 00:40:12;;;;;;;9.07;3.17;;;9.00;99.90;;;;;;5126222;28;20686;-78
2022/02/24 00:42:39;;;;;;;12.53;3.97;;;8.90;99.90;;;;;;5122725;28;20245;-78
2022/02/24 00:45:07;;;;;;;12.47;3.17;;;9.00;99.90;;;;;;5125100;28;20554;-78
2022/02/24 00:47:34;;;;;;;10.30;3.30;;;8.90;99.90;;;;;;5126061;28;20571;-78
2022/02/24 00:50:00;;;;;;;10.30;3.40;;;8.90;99.90;;;;;;5125374;28;20224;-78
2022/02/24 00:52:30;;;;;;;11.83;3.10;;;9.00;99.90;;;;;;5124868;28;20192;-78
2022/02/24 00:54:56;;;;;;;17.97;3.80;;;8.90;99.90;;;;;;5126031;28;20274;-78
2022/02/24 00:57:24;;;;;;;11.13;3.20;;;8.80;99.90;;;;;;5125407;28;20173;-78
2022/02/24 00:59:53;;;;;;;12.38;4.15;;;8.80;99.90;;;;;;5123557;28;20424;-78
2022/02/24 01:02:22;;;;;;;13.17;3.53;;;8.90;99.90;;;;;;5125751;28;20199;-79
2022/02/24 01:04:50;;;;;;;11.40;3.30;;;9.00;99.90;;;;;;5125362;28;20676;-78
2022/02/24 01:07:16;;;;;;;12.93;3.67;;;9.00;99.90;;;;;;5122677;28;20215;-78
2022/02/24 01:09:45;;;;;;;6.50;3.20;;;9.00;99.90;;;;;;5109088;28;20183;-78
2022/02/24 01:12:11;;;;;;;13.27;3.63;;;8.90;99.90;;;;;;5128142;28;20211;-78
2022/02/24 01:14:39;;;;;;;9.03;3.10;;;8.90;99.90;;;;;;5124117;28;20199;-78
2022/02/24 01:17:05;;;;;;;9.37;2.77;;;8.90;99.90;;;;;;5122837;28;20776;-78
2022/02/24 01:19:32;;;;;;;11.37;3.23;;;9.00;99.90;;;;;;5124292;28;20207;-78
2022/02/24 01:21:59;;;;;;;14.32;3.90;;;8.90;99.90;;;;;;5124378;28;20443;-78
2022/02/24 01:24:26;;;;;;;14.37;3.37;;;9.00;99.90;;;;;;5124165;28;20204;-78
2022/02/24 01:26:54;;;;;;;12.07;3.33;;;8.90;99.90;;;;;;5124865;28;20184;-78
2022/02/24 01:29:21;;;;;;;10.83;3.00;;;8.80;99.90;;;;;;5121712;28;20205;-78
2022/02/24 01:31:48;;;;;;;9.73;3.23;;;8.80;99.90;;;;;;5124267;28;20183;-78
2022/02/24 01:34:19;;;;;;;17.53;4.37;;;8.90;99.90;;;;;;5123989;28;20648;-81
2022/02/24 01:36:46;;;;;;;10.20;2.83;;;8.80;99.90;;;;;;5125333;28;20195;-79
2022/02/24 01:39:13;;;;;;;9.43;3.37;;;8.80;99.90;;;;;;5126299;28;20204;-78
2022/02/24 01:41:43;;;;;;;9.07;3.03;;;8.70;99.90;;;;;;5124058;28;20235;-78
2022/02/24 01:44:14;;;;;;;12.07;3.27;;;8.70;99.90;;;;;;5125230;28;20200;-78
2022/02/24 01:46:43;;;;;;;11.90;3.90;;;8.70;99.90;;;;;;5123961;28;20413;-78
2022/02/24 01:49:12;;;;;;;8.50;2.77;;;8.90;99.90;;;;;;5123772;28;20227;-78
2022/02/24 01:51:47;;;;;;;14.57;3.60;;;9.00;99.90;;;;;;5122147;28;20196;-78
2022/02/24 01:54:14;;;;;;;7.97;2.73;;;9.00;99.90;;;;;;5123796;28;20211;-78
2022/02/24 01:56:48;;;;;;;10.50;3.63;;;8.90;99.90;;;;;;5124923;28;20192;-78
2022/02/24 01:59:18;;;;;;;11.43;3.47;;;8.90;99.90;;;;;;5124620;28;20200;-79
2022/02/24 02:01:45;;;;;;;9.73;4.10;;;8.90;99.90;;;;;;5128717;28;20203;-78
2022/02/24 02:04:11;;;;;;;9.13;3.50;;;8.90;99.90;;;;;;5128261;28;20205;-78
2022/02/24 02:06:39;;;;;;;9.67;3.27;;;8.80;99.90;;;;;;5127589;28;20215;-78
2022/02/24 02:09:06;;;;;;;12.98;3.90;;;8.80;99.90;;;;;;5127837;28;20408;-78
2022/02/24 02:11:33;;;;;;;12.03;3.17;;;8.80;99.90;;;;;;5132418;28;20180;-78
2022/02/24 02:13:59;;;;;;;11.43;3.37;;;8.80;99.90;;;;;;5129868;28;20233;-78
2022/02/24 02:16:27;;;;;;;12.70;3.43;;;8.70;99.90;;;;;;5127823;28;20698;-78
2022/02/24 02:18:54;;;;;;;10.30;3.47;;;8.70;99.90;;;;;;5128392;28;20211;-78
2022/02/24 02:21:22;;;;;;;14.13;3.20;;;8.70;99.90;;;;;;5126761;28;20232;-78
2022/02/24 02:23:49;;;;;;;11.73;3.03;;;8.60;99.90;;;;;;5131547;28;20585;-78
2022/02/24 02:26:16;;;;;;;12.90;3.30;;;8.70;99.90;;;;;;5129542;28;20175;-78
2022/02/24 02:28:43;;;;;;;12.40;3.27;;;8.70;99.90;;;;;;5125731;28;20188;-78
2022/02/24 02:31:09;;;;;;;12.00;3.40;;;8.70;99.90;;;;;;5125270;28;20200;-78
2022/02/24 02:33:36;;;;;;;14.80;3.77;;;8.60;99.90;;;;;;5106876;28;20205;-78
2022/02/24 02:36:03;;;;;;;9.83;3.40;;;8.70;99.90;;;;;;5107100;28;20189;-77
2022/02/24 02:38:31;;;;;;;12.60;3.63;;;8.70;99.90;;;;;;5107252;28;20204;-78
2022/02/24 02:41:01;;;;;;;11.73;3.37;;;8.70;99.90;;;;;;5107013;28;20236;-82
2022/02/24 02:43:31;;;;;;;10.53;3.60;;;8.70;99.90;;;;;;5104798;28;20200;-78
2022/02/24 02:45:59;;;;;;;16.23;3.83;;;8.80;99.90;;;;;;5106046;28;20296;-80
2022/02/24 02:48:40;;;;;;;14.30;3.60;;;8.70;99.90;;;;;;5107531;28;20229;-78
2022/02/24 02:51:11;;;;;;;11.20;3.50;;;8.70;99.90;;;;;;5103581;28;20679;-78
2022/02/24 02:53:46;;;;;;;12.63;3.60;;;8.70;99.90;;;;;;5103888;28;20189;-78
2022/02/24 02:56:13;;;;;;;12.57;4.55;;;8.70;99.90;;;;;;5104510;28;20418;-78
2022/02/24 02:58:41;;;;;;;11.93;3.47;;;8.80;99.90;;;;;;5105073;28;20212;-79
2022/02/24 03:01:08;;;;;;;12.27;4.43;;;8.70;99.90;;;;;;5104811;28;20214;-77
2022/02/24 03:03:35;;;;;;;15.73;3.90;;;8.80;99.90;;;;;;5104415;28;20252;-80
2022/02/24 03:06:02;;;;;;;14.93;3.87;;;8.80;99.90;;;;;;5105116;28;20197;-77
2022/02/24 03:08:29;;;;;;;10.93;3.73;;;8.70;99.90;;;;;;5106533;28;20212;-77
2022/02/24 03:10:57;;;;;;;11.20;3.40;;;8.70;99.90;;;;;;5105258;28;20196;-77
2022/02/24 03:13:24;;;;;;;11.03;3.33;;;8.80;99.90;;;;;;5103849;28;20205;-77
2022/02/24 03:15:52;;;;;;;13.63;3.70;;;8.80;99.90;;;;;;5101362;28;20204;-75
2022/02/24 03:18:18;;;;;;;11.07;3.90;;;8.70;99.90;;;;;;5106964;28;20209;-77
2022/02/24 03:20:46;;;;;;;12.40;3.83;;;8.70;99.90;;;;;;5107713;28;20227;-82
2022/02/24 03:23:13;;;;;;;12.63;3.27;;;8.70;99.90;;;;;;5106255;28;20180;-77
2022/02/24 03:25:40;;;;;;;8.63;3.03;;;8.70;99.90;;;;;;5105652;28;20188;-77
2022/02/24 03:28:08;;;;;;;12.83;3.40;;;8.60;99.90;;;;;;5102800;28;20204;-77
2022/02/24 03:30:37;;;;;;;14.03;3.40;;;8.60;99.90;;;;;;5105844;28;20227;-77
2022/02/24 03:33:05;;;;;;;17.23;3.13;;;8.60;99.90;;;;;;5105512;28;20181;-77
2022/02/24 03:35:32;;;;;;;15.00;3.60;;;8.50;99.90;;;;;;5105646;28;20177;-77
2022/02/24 03:37:59;;;;;;;19.33;4.77;;;8.50;99.90;;;;;;5103365;28;20216;-77
2022/02/24 03:40:28;;;;;;;11.33;3.10;;;8.50;99.90;;;;;;5106980;28;20201;-82
2022/02/24 03:42:55;;;;;;;13.80;3.53;;;8.60;99.90;;;;;;5104260;28;20205;-78
2022/02/24 03:45:23;;;;;;;8.43;2.77;;;8.60;99.90;;;;;;5104650;28;20205;-79
2022/02/24 03:47:56;;;;;;;9.47;2.73;;;8.50;99.90;;;;;;5104872;28;20193;-81
2022/02/24 03:50:24;;;;;;;10.37;3.00;;;8.50;99.90;;;;;;5107503;28;20224;-78
2022/02/24 03:52:51;;;;;;;12.87;2.80;;;8.50;99.90;;;;;;5109446;28;20169;-78
2022/02/24 03:55:18;;;;;;;12.97;3.13;;;8.50;99.90;;;;;;5103978;28;20200;-83
2022/02/24 03:57:44;;;;;;;8.10;2.10;;;8.60;99.90;;;;;;5104667;28;20283;-77
2022/02/24 04:00:12;;;;;;;10.40;2.87;;;8.70;99.90;;;;;;5106555;28;20197;-80
2022/02/24 04:02:40;;;;;;;6.80;2.33;;;8.60;99.90;;;;;;5107943;28;20221;-77
2022/02/24 04:05:09;;;;;;;11.70;3.20;;;8.60;99.90;;;;;;5104305;28;20422;-77
2022/02/24 04:07:36;;;;;;;13.33;2.73;;;8.60;99.90;;;;;;5105923;28;20201;-77
2022/02/24 04:10:05;;;;;;;9.10;2.50;;;8.70;99.90;;;;;;5106748;28;20654;-78
2022/02/24 04:12:32;;;;;;;6.47;2.17;;;8.60;99.90;;;;;;5106960;28;20204;-77
2022/02/24 04:15:00;;;;;;;9.10;2.20;;;8.60;99.90;;;;;;5107958;28;20216;-77
2022/02/24 04:17:26;;;;;;;13.57;2.90;;;8.60;99.90;;;;;;5105512;28;20185;-77
2022/02/24 04:19:54;;;;;;;10.33;2.60;;;8.60;99.90;;;;;;5107563;28;20189;-78
2022/02/24 04:22:21;;;;;;;9.33;2.83;;;8.50;99.90;;;;;;5105523;28;20217;-77
2022/02/24 04:24:48;;;;;;;10.90;2.50;;;8.50;99.90;;;;;;5107149;28;20200;-79
2022/02/24 04:27:15;;;;;;;9.87;2.23;;;8.40;99.90;;;;;;5104237;28;20201;-78
2022/02/24 04:29:53;;;;;;;9.05;3.30;;;8.40;99.90;;;;;;5087686;28;20541;-79
2022/02/24 04:32:20;;;;;;;8.43;2.37;;;8.50;99.90;;;;;;5102024;28;20669;-79
2022/02/24 04:34:47;;;;;;;7.33;2.50;;;8.40;99.90;;;;;;5103313;28;20196;-81
2022/02/24 04:37:15;;;;;;;11.00;2.47;;;8.40;99.90;;;;;;5103267;28;20213;-83
2022/02/24 04:39:42;;;;;;;10.57;2.73;;;8.30;99.90;;;;;;5104473;28;20209;-83
2022/02/24 04:42:09;;;;;;;9.30;2.30;;;8.40;99.90;;;;;;5105054;28;20639;-77
2022/02/24 04:44:38;;;;;;;9.17;2.30;;;8.40;99.90;;;;;;5104702;28;20201;-78
2022/02/24 04:47:05;;;;;;;10.20;2.87;;;8.40;99.90;;;;;;5102897;28;20523;-80
2022/02/24 04:49:32;;;;;;;6.97;2.23;;;8.40;99.90;;;;;;5103761;28;20227;-77
2022/02/24 04:52:00;;;;;;;9.98;2.47;;;8.40;99.90;;;;;;5102558;28;20430;-78
2022/02/24 04:54:28;;;;;;;5.57;2.40;;;8.40;99.90;;;;;;5106677;28;20205;-77
2022/02/24 04:56:55;;;;;;;9.90;2.33;;;8.30;99.90;;;;;;5107203;28;20186;-81
2022/02/24 04:59:22;;;;;;;10.33;2.53;;;8.40;99.90;;;;;;5104010;28;20205;-78
2022/02/24 05:01:49;;;;;;;12.37;2.83;;;8.40;99.90;;;;;;5103011;28;20573;-78
2022/02/24 05:04:16;;;;;;;7.63;2.80;;;8.30;99.90;;;;;;5109404;28;20221;-83
2022/02/24 05:06:45;;;;;;;6.80;2.20;;;8.40;99.90;;;;;;5108507;28;20173;-81
2022/02/24 05:09:18;;;;;;;13.17;2.87;;;8.30;99.90;;;;;;5109157;28;20201;-80
2022/02/24 05:12:02;;;;;;;7.93;2.30;;;8.30;99.90;;;;;;5106593;28;20193;-81
2022/02/24 05:14:31;;;;;;;7.50;2.33;;;8.20;99.90;;;;;;5105529;28;20205;-81
2022/02/24 05:16:58;;;;;;;8.77;2.90;;;8.20;99.90;;;;;;5108628;28;20418;-81
2022/02/24 05:19:25;;;;;;;14.63;3.07;;;8.30;99.90;;;;;;5106978;28;20215;-81
2022/02/24 05:21:52;;;;;;;12.73;3.30;;;8.20;99.90;;;;;;5109296;28;20211;-81
2022/02/24 05:24:27;;;;;;;8.87;2.00;;;8.30;99.90;;;;;;5105552;28;20209;-81
2022/02/24 05:26:56;;;;;;;7.80;2.37;;;8.20;99.90;;;;;;5104466;28;20204;-81
2022/02/24 05:29:28;;;;;;;4.80;2.40;;;8.20;99.90;;;;;;5104652;28;20201;-81
2022/02/24 05:31:57;;;;;;;10.87;2.50;;;8.10;99.90;;;;;;5086876;28;20215;-86
2022/02/24 05:34:29;;;;;;;12.80;2.60;;;8.10;99.90;;;;;;5085148;28;20197;-81
2022/02/24 05:37:03;;;;;;;8.50;2.13;;;8.10;99.90;;;;;;5104871;28;20209;-82
2022/02/24 05:39:29;;;;;;;10.37;2.97;;;8.00;99.90;;;;;;5105804;28;20213;-84
2022/02/24 05:41:59;;;;;;;4.83;2.23;;;7.90;99.90;;;;;;5106410;28;20229;-82
2022/02/24 05:44:28;;;;;;;12.17;2.83;;;7.90;99.90;;;;;;5104762;28;20204;-84
2022/02/24 05:46:55;;;;;;;13.03;3.20;;;7.80;99.90;;;;;;5103965;28;20207;-82
2022/02/24 05:49:22;;;;;;;10.30;2.60;;;7.80;99.90;;;;;;5087457;28;20278;-85
2022/02/24 05:51:52;;;;;;;12.57;2.60;;;7.80;99.90;;;;;;5086939;28;20205;-81
2022/02/24 05:54:28;;;;;;;8.43;2.40;;;7.80;99.90;;;;;;5104407;28;20207;-83
2022/02/24 05:57:04;;;;;;;11.37;3.70;;;7.80;99.90;;;;;;5107444;28;20195;-81
2022/02/24 05:59:36;;;;;;;14.17;2.87;;;7.70;99.90;;;;;;5087739;28;20193;-81
2022/02/24 06:02:05;;;;;;;11.87;2.40;;;7.70;99.90;;;;;;5092258;28;20220;-84
2022/02/24 06:04:39;;;;;;;12.13;2.53;;;7.70;99.90;;;;;;5095966;28;20212;-86
2022/02/24 06:07:15;;;;;;;10.00;2.70;;;7.50;99.90;;;;;;5112885;28;20204;-86
2022/02/24 06:09:44;;;;;;;10.03;2.47;;;7.60;99.90;;;;;;5112309;28;20200;-82
2022/02/24 06:12:20;;;;;;;10.73;2.90;;;7.60;99.90;;;;;;5106981;28;20304;-82
2022/02/24 06:14:51;;;;;;;10.87;2.60;;;7.60;99.90;;;;;;5104101;28;20211;-80
2022/02/24 06:17:18;;;;;;;11.00;2.50;;;7.50;99.90;;;;;;5102204;28;20197;-79
2022/02/24 06:19:47;;;;;;;14.43;3.07;;;7.60;99.90;;;;;;5099657;28;20655;-79
2022/02/24 06:22:24;;;;;;;13.13;2.70;;;7.60;99.90;;;;;;5102963;28;20221;-79
2022/02/24 06:24:54;;;;;;;13.27;3.20;;;7.60;99.90;;;;;;5101419;28;20208;-80
2022/02/24 06:27:28;;;;;;;16.23;3.25;;;7.70;99.90;;;;;;5083640;28;20423;-85
2022/02/24 06:30:00;;;;;;;17.77;2.97;;;7.60;99.90;;;;;;5101292;28;20197;-83
2022/02/24 06:32:37;;;;;;;11.67;2.70;;;7.60;99.90;;;;;;5103546;28;20201;-79
2022/02/24 06:35:06;;;;;;;9.53;3.13;;;7.60;99.90;;;;;;5100754;28;20201;-80
2022/02/24 06:37:32;;;;;;;15.47;2.97;;;7.70;99.90;;;;;;5102997;28;20667;-81
2022/02/24 06:40:09;;;;;;;10.90;3.47;;;7.70;99.90;;;;;;5102197;28;20193;-81
2022/02/24 06:42:40;;;;;;;9.43;3.10;;;7.60;99.90;;;;;;5103018;28;20712;-81
2022/02/24 06:45:15;;;;;;;17.90;3.67;;;7.60;99.90;;;;;;5105000;28;20189;-82
2022/02/24 06:47:53;;;;;;;17.70;3.30;;;7.70;99.90;;;;;;5105244;28;20659;-81
2022/02/24 06:50:20;;;;;;;15.13;3.37;;;7.70;99.90;;;;;;5106716;28;20201;-80
2022/02/24 06:52:47;;;;;;;9.50;2.70;;;7.70;99.90;;;;;;5089485;28;20213;-81
2022/02/24 06:55:15;;;;;;;11.23;2.90;;;7.70;99.90;;;;;;5103013;28;20201;-81
2022/02/24 06:57:47;;;;;;;12.10;3.13;;;7.70;99.90;;;;;;5104058;28;20737;-80
2022/02/24 07:00:24;;;;;;;13.13;3.27;;;7.90;99.90;;;;;;5105174;28;20205;-81
2022/02/24 07:02:57;;;;;;;11.93;2.83;;;7.80;99.90;;;;;;5103768;28;20234;-81
2022/02/24 07:05:24;;;;;;;13.60;3.57;;;7.80;99.90;;;;;;5104199;28;20205;-81
2022/02/24 07:07:58;;;;;;;15.57;3.53;;;7.80;99.90;;;;;;5103241;28;20573;-82
2022/02/24 07:10:25;;;;;;;9.00;3.07;;;7.90;99.90;;;;;;5104074;28;20262;-80
2022/02/24 07:12:58;;;;;;;15.77;3.30;;;7.90;99.90;;;;;;5104794;28;20201;-81
2022/02/24 07:15:30;;;;;;;14.53;4.00;;;8.00;99.90;;;;;;5105978;28;20429;-81
2022/02/24 07:18:02;;;;;;;18.07;3.27;;;8.00;99.90;;;;;;5103411;28;20507;-81
2022/02/24 07:20:29;;;;;;;20.13;3.53;;;7.90;99.90;;;;;;5106560;28;20196;-81
2022/02/24 07:22:59;;;;;;;14.10;3.40;;;7.90;99.90;;;;;;5106140;28;20722;-83
2022/02/24 07:25:27;;;;;;;15.43;3.40;;;7.90;99.90;;;;;;5104778;28;20197;-80
2022/02/24 07:27:54;;;;;;;11.07;3.30;;;7.80;99.90;;;;;;5109556;28;20173;-84
2022/02/24 07:30:21;;;;;;;18.10;3.33;;;7.90;99.90;;;;;;5109184;28;20208;-80
2022/02/24 07:32:55;;;;;;;15.43;3.27;;;7.90;99.90;;;;;;5108750;28;20201;-80
2022/02/24 07:35:22;;;;;;;11.10;2.93;;;7.80;99.90;;;;;;5105319;28;20208;-80
2022/02/24 07:37:49;;;;;;;14.70;3.42;;;7.80;99.90;;;;;;5107141;28;20427;-81
2022/02/24 07:40:16;;;;;;;13.50;2.90;;;7.80;99.90;;;;;;5105915;28;20197;-81
2022/02/24 07:42:43;;;;;;;13.37;3.23;;;7.80;99.90;;;;;;5104029;28;20217;-80
2022/02/24 07:45:17;;;;;;;12.07;2.93;;;7.80;99.90;;;;;;5106351;28;20205;-81
2022/02/24 07:47:44;;;;;;;12.30;3.20;;;7.80;99.90;;;;;;5107499;28;20200;-81
2022/02/24 07:50:13;;;;;;;10.97;3.20;;;7.70;99.90;;;;;;5107009;28;20246;-80
2022/02/24 07:52:44;;;;;;;14.87;3.50;;;7.80;99.90;;;;;;5104699;28;20212;-84
2022/02/24 07:55:14;;;;;;;10.27;2.90;;;7.70;99.90;;;;;;5118787;28;20227;-81
2022/02/24 07:57:49;;;;;;;12.83;2.87;;;7.70;99.90;;;;;;5131958;28;20208;-81
2022/02/24 08:00:17;;;;;;;15.80;3.37;;;7.60;99.90;;;;;;5129946;28;20669;-81
2022/02/24 08:02:45;;;;;;;15.23;3.80;;;7.60;99.90;;;;;;5111808;28;20421;-81
2022/02/24 08:05:14;;;;;;;12.53;3.10;;;7.70;99.90;;;;;;5121092;28;20465;-80
2022/02/24 08:07:48;;;;;;;12.93;3.33;;;7.80;99.90;;;;;;5111175;28;20830;-80
2022/02/24 08:10:15;;;;;;;15.50;3.40;;;7.80;99.90;;;;;;5114196;28;20211;-80
2022/02/24 08:12:45;;;;;;;16.97;3.40;;;7.70;99.90;;;;;;5106038;28;20201;-81
2022/02/24 08:15:13;;;;;;;13.67;3.77;;;7.70;99.90;;;;;;5112997;28;20215;-80
2022/02/24 08:17:42;;;;;;;16.33;3.50;;;7.80;99.90;;;;;;5115325;28;20252;-80
2022/02/24 08:20:11;;;;;;;17.67;3.30;;;7.80;99.90;;;;;;5123224;28;20200;-81
2022/02/24 08:22:44;;;;;;;13.30;3.30;;;7.80;99.90;;;;;;5117269;28;20210;-80
2022/02/24 08:25:14;;;;;;;20.27;4.57;;;7.80;99.90;;;;;;5109477;28;20355;-81
2022/02/24 08:27:44;;;;;;;15.57;3.13;;;7.90;99.90;;;;;;5106688;28;20189;-80
2022/02/24 08:30:13;;;;;;;9.17;3.00;;;7.90;99.90;;;;;;5101064;28;20208;-81
2022/02/24 08:32:46;;;;;;;16.73;3.40;;;8.00;99.90;;;;;;5101974;28;20215;-81
2022/02/24 08:35:16;;;;;;;13.17;3.13;;;8.20;99.90;;;;;;5101966;28;20227;-81
2022/02/24 08:37:47;;;;;;;15.73;2.90;;;8.10;99.90;;;;;;5109572;28;20567;-81
2022/02/24 08:40:23;;;;;;;12.03;2.97;;;8.20;99.90;;;;;;5119622;28;20258;-80
2022/02/24 08:42:51;;;;;;;15.30;3.27;;;8.20;99.90;;;;;;5123567;28;20230;-80
2022/02/24 08:45:21;;;;;;;16.40;3.33;;;8.20;99.90;;;;;;5118651;28;20201;-81
2022/02/24 08:47:50;;;;;;;7.33;2.70;;;8.20;99.90;;;;;;5118248;28;20225;-80
2022/02/24 08:50:28;;;;;;;8.53;2.40;;;8.20;99.90;;;;;;5099691;28;20215;-82
2022/02/24 08:52:59;;;;;;;14.57;3.10;;;8.00;99.90;;;;;;5120633;28;20199;-80
2022/02/24 08:55:27;;;;;;;9.93;3.03;;;8.10;99.90;;;;;;5101212;28;20201;-80
2022/02/24 08:58:00;;;;;;;12.27;3.30;;;8.20;99.90;;;;;;5105819;28;20224;-81
2022/02/24 09:00:27;;;;;;;20.43;3.17;;;8.40;99.90;;;;;;5119844;28;20196;-81
2022/02/24 09:02:56;;;;;;;13.30;3.27;;;8.30;99.90;;;;;;5120935;28;20716;-80
2022/02/24 09:05:24;;;;;;;16.80;3.30;;;8.40;99.90;;;;;;5115813;28;20193;-80
2022/02/24 09:07:53;;;;;;;10.20;2.37;;;8.40;99.90;;;;;;5120167;28;20279;-80
2022/02/24 09:10:31;;;;;;;22.57;3.73;;;8.50;99.90;;;;;;5117669;28;20207;-80
2022/02/24 09:13:10;;;;;;;17.05;3.60;;;8.40;99.90;;;;;;5120101;28;20443;-82
2022/02/24 09:15:39;;;;;;;13.40;3.20;;;8.50;99.90;;;;;;5120560;28;20200;-82
2022/02/24 09:18:09;;;;;;;14.07;3.60;;;8.60;99.90;;;;;;5122544;28;20196;-82
2022/02/24 09:20:37;;;;;;;8.70;2.50;;;8.50;99.90;;;;;;5120879;28;20253;-80
2022/02/24 09:23:07;;;;;;;8.57;3.10;;;8.50;99.90;;;;;;5122372;28;20223;-80
2022/02/24 09:25:41;;;;;;;11.40;2.67;;;8.50;99.90;;;;;;5120326;28;20214;-80
2022/02/24 09:28:30;;;;;;;12.00;2.60;;;8.60;99.90;;;;;;5123246;28;20203;-81
2022/02/24 09:31:05;;;;;;;7.10;2.60;;;8.60;99.90;;;;;;5124978;28;20215;-81
2022/02/24 09:33:32;;;;;;;7.80;2.27;;;8.60;99.90;;;;;;5127544;28;20180;-82
2022/02/24 09:36:01;;;;;;;5.17;2.10;;;8.70;99.90;;;;;;5107530;28;20208;-82
2022/02/24 09:38:29;;;;;;;9.20;2.50;;;8.80;99.90;;;;;;5107059;28;20208;-80
2022/02/24 09:41:05;;;;;;;8.37;2.43;;;8.90;99.90;;;;;;5128066;28;20214;-83
2022/02/24 09:43:37;;;;;;;12.87;2.53;;;9.00;99.90;;;;;;5128114;28;20220;-82
2022/02/24 09:46:11;;;;;;;11.07;3.33;;;9.10;99.90;;;;;;5132549;28;20232;-81
2022/02/24 09:48:45;;;;;;;9.03;2.83;;;9.00;99.90;;;;;;5131186;28;20208;-83
2022/02/24 09:51:23;;;;;;;9.63;2.83;;;9.10;99.90;;;;;;5134837;28;20164;-85
2022/02/24 09:53:50;;;;;;;14.30;2.60;;;9.10;99.90;;;;;;5130122;28;20191;-78
2022/02/24 09:56:20;;;;;;;9.73;2.10;;;9.10;99.90;;;;;;5128236;28;20188;-78
2022/02/24 09:58:48;;;;;;;6.97;2.60;;;9.20;99.90;;;;;;5130044;28;20291;-79
2022/02/24 10:01:19;;;;;;;10.20;3.20;;;9.30;99.90;;;;;;5126615;28;20416;-80
2022/02/24 10:03:53;;;;;;;14.33;2.60;;;9.40;99.90;;;;;;5128911;28;20208;-78
2022/02/24 10:06:31;;;;;;;12.60;2.93;;;9.30;99.90;;;;;;5128219;28;20207;-81
2022/02/24 10:09:00;;;;;;;12.20;2.77;;;9.20;99.90;;;;;;5131420;27;20189;-81
2022/02/24 10:11:31;;;;;;;9.43;2.50;;;9.40;99.90;;;;;;5128260;27;20197;-78
2022/02/24 10:14:00;;;;;;;7.60;2.40;;;9.40;99.90;;;;;;5129731;27;20203;-78
2022/02/24 10:16:27;;;;;;;9.90;2.20;;;9.60;99.90;;;;;;5128334;28;20199;-79
2022/02/24 10:18:55;;;;;;;9.37;2.27;;;9.50;99.90;;;;;;5129852;27;20205;-80
2022/02/24 10:21:26;;;;;;;7.50;2.97;;;9.50;99.90;;;;;;5133023;28;20192;-79
2022/02/24 10:23:53;;;;;;;12.27;2.73;;;9.60;99.90;;;;;;5131617;28;20276;-80
2022/02/24 10:26:25;;;;;;;7.97;2.90;;;9.70;99.90;;;;;;5132449;27;20201;-79
2022/02/24 10:29:08;;;;;;;11.17;2.70;;;9.50;99.90;;;;;;5135352;27;20216;-78
2022/02/24 10:31:46;;;;;;;11.57;2.70;;;9.60;99.90;;;;;;5135760;27;20184;-82
2022/02/24 10:34:17;;;;;;;9.67;2.73;;;9.70;99.90;;;;;;5134204;28;20651;-78
2022/02/24 10:36:45;;;;;;;12.97;3.40;;;9.70;99.90;;;;;;5133428;27;20621;-79
2022/02/24 10:39:17;;;;;;;9.27;2.67;;;9.80;99.90;;;;;;5133281;28;20223;-83
2022/02/24 10:41:52;;;;;;;7.20;2.17;;;10.00;99.90;;;;;;5134421;27;20180;-82
2022/02/24 10:44:25;;;;;;;6.63;2.40;;;10.10;99.90;;;;;;5134168;27;20245;-79
2022/02/24 10:47:09;;;;;;;11.00;2.43;;;10.00;99.90;;;;;;5128217;28;20201;-79
2022/02/24 10:49:39;;;;;;;10.07;3.08;;;10.30;99.90;;;;;;5133657;27;20446;-82
2022/02/24 10:52:13;;;;;;;8.00;2.53;;;10.50;99.90;;;;;;5135185;27;20227;-79
2022/02/24 10:54:40;;;;;;;6.00;2.40;;;10.50;99.90;;;;;;5134982;27;20208;-78
2022/02/24 10:57:21;;;;;;;7.00;2.30;;;10.50;99.90;;;;;;5134176;27;20188;-79
2022/02/24 10:59:49;;;;;;;5.37;2.10;;;10.60;99.90;;;;;;5134973;27;20218;-79
2022/02/24 11:02:18;;;;;;;10.30;2.30;;;10.50;99.90;;;;;;5125225;27;20214;-78
2022/02/24 11:04:46;;;;;;;6.60;2.10;;;10.50;99.90;;;;;;5127381;28;20227;-79
2022/02/24 11:07:14;;;;;;;4.83;2.27;;;10.60;99.90;;;;;;5124223;28;20191;-77
2022/02/24 11:09:42;;;;;;;6.83;2.23;;;10.70;99.90;;;;;;5130061;28;20207;-80
2022/02/24 11:12:12;;;;;;;6.63;2.25;;;10.70;99.90;;;;;;5122752;28;20436;-78
2022/02/24 11:14:40;;;;;;;7.00;2.20;;;10.90;99.90;;;;;;5121095;28;20202;-78
2022/02/24 11:17:11;;;;;;;10.67;2.10;;;11.10;99.90;;;;;;5120135;28;20212;-78
2022/02/24 11:19:40;;;;;;;7.93;2.37;;;11.10;99.90;;;;;;5122639;28;20202;-77
2022/02/24 11:22:10;;;;;;;7.97;2.10;;;11.20;99.90;;;;;;5125197;28;20200;-78
2022/02/24 11:24:50;;;;;;;6.43;2.23;;;11.30;99.90;;;;;;5124436;28;20225;-78
2022/02/24 11:27:21;;;;;;;7.47;2.17;;;11.10;99.90;;;;;;5124814;28;20282;-79
2022/02/24 11:30:02;;;;;;;6.23;1.87;;;11.00;99.90;;;;;;5125030;28;20197;-79
2022/02/24 11:32:30;;;;;;;5.93;2.40;;;11.10;99.90;;;;;;5122422;28;20207;-79
2022/02/24 11:35:06;;;;;;;7.37;2.40;;;11.10;99.90;;;;;;5128879;28;20180;-79
2022/02/24 11:37:35;;;;;;;6.40;1.80;;;11.10;99.90;;;;;;5125774;28;20265;-78
2022/02/24 11:40:06;;;;;;;6.17;2.13;;;11.20;99.90;;;;;;5123461;28;20200;-79
2022/02/24 11:42:35;;;;;;;6.90;2.10;;;11.20;99.90;;;;;;5125618;28;20199;-79
2022/02/24 11:45:02;;;;;;;10.07;2.00;;;11.20;99.90;;;;;;5124104;28;20268;-79
2022/02/24 11:47:56;;;;;;;4.80;2.00;;;11.30;99.90;;;;;;5124481;28;20224;-80
2022/02/24 11:50:35;;;;;;;5.20;2.03;;;11.30;99.90;;;;;;5125472;28;20211;-79
2022/02/24 11:53:03;;;;;;;7.30;1.73;;;11.20;99.90;;;;;;5122086;28;20201;-78
2022/02/24 11:55:54;;;;;;;7.23;1.90;;;11.20;99.90;;;;;;5121781;28;20253;-78
2022/02/24 11:58:55;;;;;;;9.00;2.10;;;11.20;99.90;;;;;;5125171;28;20205;-80
2022/02/24 12:01:44;;;;;;;6.93;2.13;;;11.20;99.90;;;;;;5125997;28;20202;-78
2022/02/24 12:04:21;;;;;;;4.90;1.90;;;11.20;99.90;;;;;;5112111;28;20276;-80
2022/02/24 12:06:53;;;;;;;9.63;2.37;;;11.10;99.90;;;;;;5122195;28;20180;-79
2022/02/24 12:09:25;;;;;;;8.17;2.00;;;11.00;99.90;;;;;;5130323;28;20169;-79
2022/02/24 12:12:02;;;;;;;7.33;1.80;;;10.80;99.90;;;;;;5132493;28;20184;-79
2022/02/24 12:14:49;;;;;;;8.43;2.17;;;10.80;99.90;;;;;;5128890;28;20200;-79
2022/02/24 12:17:22;;;;;;;8.80;2.07;;;10.60;99.90;;;;;;5127174;28;20194;-80
2022/02/24 12:19:54;;;;;;;8.50;2.07;;;10.60;99.90;;;;;;5129385;28;20639;-79
2022/02/24 12:22:38;;;;;;;5.20;2.00;;;10.60;99.90;;;;;;5127922;28;20214;-79
2022/02/24 12:25:09;;;;;;;6.53;1.67;;;10.60;99.90;;;;;;5126736;28;20230;-79
2022/02/24 12:27:57;;;;;;;5.03;1.90;;;10.40;99.90;;;;;;5127157;28;20183;-79
2022/02/24 12:30:32;;;;;;;6.67;2.30;;;10.30;99.90;;;;;;5129381;28;20196;-79
2022/02/24 12:33:07;;;;;;;7.40;2.23;;;10.10;99.90;;;;;;5127533;28;20565;-79
2022/02/24 12:35:37;;;;;;;8.33;2.70;;;10.00;99.90;;;;;;5127963;28;20245;-80
2022/02/24 12:38:05;;;;;;;5.17;2.13;;;9.80;99.90;;;;;;5130049;28;20219;-81
2022/02/24 12:40:54;;;;;;;8.60;2.90;;;9.80;99.90;;;;;;5126307;28;20212;-79
2022/02/24 12:43:27;;;;;;;13.00;2.63;;;9.70;99.90;;;;;;5126952;28;20184;-79
2022/02/24 12:45:56;;;;;;;8.47;2.63;;;9.60;99.90;;;;;;5129596;28;20184;-79
2022/02/24 12:48:23;;;;;;;8.13;2.90;;;9.60;99.90;;;;;;5131610;28;20204;-81
2022/02/24 12:50:53;;;;;;;7.00;2.70;;;9.40;99.90;;;;;;5135714;28;20200;-81
2022/02/24 12:53:21;;;;;;;8.17;2.50;;;9.40;99.90;;;;;;5135064;28;20180;-78
2022/02/24 12:55:49;;;;;;;7.53;2.97;;;9.40;99.90;;;;;;5117278;28;20234;-79
2022/02/24 12:58:18;;;;;;;5.17;2.67;;;9.30;99.90;;;;;;5129994;28;20189;-80
2022/02/24 13:00:58;;;;;;;9.33;3.10;;;9.20;99.90;;;;;;5123653;28;20212;-79
2022/02/24 13:03:26;;;;;;;2.43;1.20;;;9.20;99.90;;;;;;5125213;28;20196;-79
2022/02/24 13:06:01;;;;;;;3.85;1.00;;;8.70;99.90;;;;;;5122059;28;20432;-81